sensor_id;sensor_type;location;lat;lon;timestamp;temperature;humidity
16827;DHT22;8530;49.540;8.576;2022-09-01T00:00:23;18.70;57.90
16827;DHT22;8530;49.540;8.576;2022-09-01T00:02:54;18.70;58.00
16827;DHT22;8530;49.540;8.576;2022-09-01T00:05:21;18.70;58.10
16827;DHT22;8530;49.540;8.576;2022-09-01T00:07:48;18.60;58.10
16827;DHT22;8530;49.540;8.576;2022-09-01T00:10:15;18.60;58.20
16827;DHT22;8530;49.540;8.576;2022-09-01T00:12:42;18.50;58.30
16827;DHT22;8530;49.540;8.576;2022-09-01T00:15:11;18.50;58.40
16827;DHT22;8530;49.540;8.576;2022-09-01T00:17:38;18.50;58.50
16827;DHT22;8530;49.540;8.576;2022-09-01T00:20:07;18.50;58.70
16827;DHT22;8530;49.540;8.576;2022-09-01T00:22:34;18.40;58.70
16827;DHT22;8530;49.540;8.576;2022-09-01T00:25:01;18.40;58.90
16827;DHT22;8530;49.540;8.576;2022-09-01T00:27:28;18.40;59.10
16827;DHT22;8530;49.540;8.576;2022-09-01T00:29:55;18.40;59.20
16827;DHT22;8530;49.540;8.576;2022-09-01T00:32:21;18.40;59.40
16827;DHT22;8530;49.540;8.576;2022-09-01T00:34:49;18.40;59.50
16827;DHT22;8530;49.540;8.576;2022-09-01T00:37:17;18.40;59.70
16827;DHT22;8530;49.540;8.576;2022-09-01T00:39:43;18.40;59.80
16827;DHT22;8530;49.540;8.576;2022-09-01T00:42:10;18.40;59.90
16827;DHT22;8530;49.540;8.576;2022-09-01T00:44:37;18.40;60.00
16827;DHT22;8530;49.540;8.576;2022-09-01T00:47:04;18.40;60.10
16827;DHT22;8530;49.540;8.576;2022-09-01T00:49:35;18.40;60.30
16827;DHT22;8530;49.540;8.576;2022-09-01T00:52:06;18.30;60.40
16827;DHT22;8530;49.540;8.576;2022-09-01T00:54:37;18.30;60.60
16827;DHT22;8530;49.540;8.576;2022-09-01T00:57:06;18.30;60.80
16827;DHT22;8530;49.540;8.576;2022-09-01T00:59:35;18.30;60.90
16827;DHT22;8530;49.540;8.576;2022-09-01T01:02:04;18.30;61.00
16827;DHT22;8530;49.540;8.576;2022-09-01T01:04:31;18.30;61.20
16827;DHT22;8530;49.540;8.576;2022-09-01T01:06:58;18.20;61.20
16827;DHT22;8530;49.540;8.576;2022-09-01T01:09:29;18.20;61.50
16827;DHT22;8530;49.540;8.576;2022-09-01T01:11:59;18.20;61.60
16827;DHT22;8530;49.540;8.576;2022-09-01T01:14:28;18.20;61.80
16827;DHT22;8530;49.540;8.576;2022-09-01T01:16:56;18.10;61.90
16827;DHT22;8530;49.540;8.576;2022-09-01T01:19:29;18.10;62.10
16827;DHT22;8530;49.540;8.576;2022-09-01T01:22:21;18.10;62.40
16827;DHT22;8530;49.540;8.576;2022-09-01T01:25:09;18.00;62.60
16827;DHT22;8530;49.540;8.576;2022-09-01T01:27:37;18.00;62.80
16827;DHT22;8530;49.540;8.576;2022-09-01T01:30:09;17.90;63.00
16827;DHT22;8530;49.540;8.576;2022-09-01T01:32:37;17.90;63.30
16827;DHT22;8530;49.540;8.576;2022-09-01T01:35:11;17.90;63.50
16827;DHT22;8530;49.540;8.576;2022-09-01T01:37:39;17.80;63.60
16827;DHT22;8530;49.540;8.576;2022-09-01T01:40:13;17.80;63.80
16827;DHT22;8530;49.540;8.576;2022-09-01T01:42:42;17.80;64.10
16827;DHT22;8530;49.540;8.576;2022-09-01T01:45:10;17.70;64.30
16827;DHT22;8530;49.540;8.576;2022-09-01T01:47:41;17.70;64.60
16827;DHT22;8530;49.540;8.576;2022-09-01T01:50:08;17.60;64.70
16827;DHT22;8530;49.540;8.576;2022-09-01T01:52:35;17.60;65.10
16827;DHT22;8530;49.540;8.576;2022-09-01T01:55:03;17.50;65.30
16827;DHT22;8530;49.540;8.576;2022-09-01T01:57:35;17.50;65.50
16827;DHT22;8530;49.540;8.576;2022-09-01T02:00:04;17.50;65.90
16827;DHT22;8530;49.540;8.576;2022-09-01T02:02:32;17.50;66.10
16827;DHT22;8530;49.540;8.576;2022-09-01T02:04:58;17.50;66.30
16827;DHT22;8530;49.540;8.576;2022-09-01T02:07:25;17.50;66.60
16827;DHT22;8530;49.540;8.576;2022-09-01T02:09:52;17.50;66.90
16827;DHT22;8530;49.540;8.576;2022-09-01T02:12:19;17.50;67.20
16827;DHT22;8530;49.540;8.576;2022-09-01T02:14:50;17.50;67.50
16827;DHT22;8530;49.540;8.576;2022-09-01T02:17:20;17.40;67.70
16827;DHT22;8530;49.540;8.576;2022-09-01T02:19:46;17.40;67.90
16827;DHT22;8530;49.540;8.576;2022-09-01T02:22:13;17.40;68.10
16827;DHT22;8530;49.540;8.576;2022-09-01T02:24:40;17.40;68.50
16827;DHT22;8530;49.540;8.576;2022-09-01T02:27:12;17.40;68.80
16827;DHT22;8530;49.540;8.576;2022-09-01T02:29:40;17.40;69.10
16827;DHT22;8530;49.540;8.576;2022-09-01T02:32:08;17.40;69.30
16827;DHT22;8530;49.540;8.576;2022-09-01T02:34:36;17.40;69.60
16827;DHT22;8530;49.540;8.576;2022-09-01T02:37:04;17.40;69.90
16827;DHT22;8530;49.540;8.576;2022-09-01T02:39:32;17.40;70.20
16827;DHT22;8530;49.540;8.576;2022-09-01T02:41:58;17.40;70.40
16827;DHT22;8530;49.540;8.576;2022-09-01T02:44:26;17.40;70.80
16827;DHT22;8530;49.540;8.576;2022-09-01T02:46:53;17.40;71.10
16827;DHT22;8530;49.540;8.576;2022-09-01T02:49:23;17.40;71.30
16827;DHT22;8530;49.540;8.576;2022-09-01T02:51:53;17.40;71.60
16827;DHT22;8530;49.540;8.576;2022-09-01T02:54:22;17.30;71.80
16827;DHT22;8530;49.540;8.576;2022-09-01T02:56:50;17.30;72.10
16827;DHT22;8530;49.540;8.576;2022-09-01T02:59:20;17.30;72.50
16827;DHT22;8530;49.540;8.576;2022-09-01T03:01:48;17.30;72.80
16827;DHT22;8530;49.540;8.576;2022-09-01T03:04:16;17.30;73.10
16827;DHT22;8530;49.540;8.576;2022-09-01T03:06:45;17.30;73.30
16827;DHT22;8530;49.540;8.576;2022-09-01T03:09:14;17.30;73.60
16827;DHT22;8530;49.540;8.576;2022-09-01T03:11:43;17.30;73.80
16827;DHT22;8530;49.540;8.576;2022-09-01T03:14:10;17.20;74.00
16827;DHT22;8530;49.540;8.576;2022-09-01T03:16:37;17.20;74.30
16827;DHT22;8530;49.540;8.576;2022-09-01T03:19:06;17.20;74.60
16827;DHT22;8530;49.540;8.576;2022-09-01T03:21:34;17.20;74.80
16827;DHT22;8530;49.540;8.576;2022-09-01T03:24:02;17.20;75.20
16827;DHT22;8530;49.540;8.576;2022-09-01T03:26:30;17.10;75.50
16827;DHT22;8530;49.540;8.576;2022-09-01T03:28:57;17.10;75.80
16827;DHT22;8530;49.540;8.576;2022-09-01T03:31:24;17.00;76.00
16827;DHT22;8530;49.540;8.576;2022-09-01T03:33:52;17.00;76.30
16827;DHT22;8530;49.540;8.576;2022-09-01T03:36:21;17.00;76.70
16827;DHT22;8530;49.540;8.576;2022-09-01T03:38:49;16.90;76.90
16827;DHT22;8530;49.540;8.576;2022-09-01T03:41:20;16.90;77.30
16827;DHT22;8530;49.540;8.576;2022-09-01T03:43:47;16.90;77.70
16827;DHT22;8530;49.540;8.576;2022-09-01T03:46:17;16.90;77.90
16827;DHT22;8530;49.540;8.576;2022-09-01T03:48:47;16.80;78.20
16827;DHT22;8530;49.540;8.576;2022-09-01T03:51:15;16.80;78.50
16827;DHT22;8530;49.540;8.576;2022-09-01T03:53:42;16.70;78.90
16827;DHT22;8530;49.540;8.576;2022-09-01T03:56:10;16.70;79.30
16827;DHT22;8530;49.540;8.576;2022-09-01T03:58:41;16.70;79.70
16827;DHT22;8530;49.540;8.576;2022-09-01T04:01:12;16.60;80.00
16827;DHT22;8530;49.540;8.576;2022-09-01T04:03:40;16.60;80.40
16827;DHT22;8530;49.540;8.576;2022-09-01T04:06:09;16.60;80.80
16827;DHT22;8530;49.540;8.576;2022-09-01T04:08:37;16.60;81.20
16827;DHT22;8530;49.540;8.576;2022-09-01T04:11:10;16.60;81.60
16827;DHT22;8530;49.540;8.576;2022-09-01T04:13:40;16.60;82.00
16827;DHT22;8530;49.540;8.576;2022-09-01T04:16:16;16.50;82.00
16827;DHT22;8530;49.540;8.576;2022-09-01T04:19:04;16.50;82.30
16827;DHT22;8530;49.540;8.576;2022-09-01T04:21:40;16.40;82.20
16827;DHT22;8530;49.540;8.576;2022-09-01T04:24:08;16.30;82.40
16827;DHT22;8530;49.540;8.576;2022-09-01T04:26:37;16.20;82.80
16827;DHT22;8530;49.540;8.576;2022-09-01T04:29:07;16.20;83.30
16827;DHT22;8530;49.540;8.576;2022-09-01T04:31:36;16.20;83.70
16827;DHT22;8530;49.540;8.576;2022-09-01T04:34:05;16.10;83.90
16827;DHT22;8530;49.540;8.576;2022-09-01T04:36:35;16.10;84.30
16827;DHT22;8530;49.540;8.576;2022-09-01T04:39:06;16.10;84.70
16827;DHT22;8530;49.540;8.576;2022-09-01T04:41:36;16.10;85.10
16827;DHT22;8530;49.540;8.576;2022-09-01T04:44:05;16.10;85.40
16827;DHT22;8530;49.540;8.576;2022-09-01T04:46:34;16.10;85.70
16827;DHT22;8530;49.540;8.576;2022-09-01T04:49:02;16.10;86.10
16827;DHT22;8530;49.540;8.576;2022-09-01T04:51:37;16.10;86.40
16827;DHT22;8530;49.540;8.576;2022-09-01T04:54:04;16.10;86.70
16827;DHT22;8530;49.540;8.576;2022-09-01T04:56:39;16.20;87.00
16827;DHT22;8530;49.540;8.576;2022-09-01T04:59:07;16.20;87.20
16827;DHT22;8530;49.540;8.576;2022-09-01T05:01:36;16.30;87.50
16827;DHT22;8530;49.540;8.576;2022-09-01T05:04:08;16.30;87.50
16827;DHT22;8530;49.540;8.576;2022-09-01T05:06:39;16.30;87.50
16827;DHT22;8530;49.540;8.576;2022-09-01T05:09:07;16.30;87.50
16827;DHT22;8530;49.540;8.576;2022-09-01T05:11:36;16.40;87.70
16827;DHT22;8530;49.540;8.576;2022-09-01T05:14:04;16.40;87.70
16827;DHT22;8530;49.540;8.576;2022-09-01T05:16:33;16.50;87.70
16827;DHT22;8530;49.540;8.576;2022-09-01T05:19:02;16.50;88.20
16827;DHT22;8530;49.540;8.576;2022-09-01T05:21:30;16.50;87.50
16827;DHT22;8530;49.540;8.576;2022-09-01T05:23:58;16.60;87.40
16827;DHT22;8530;49.540;8.576;2022-09-01T05:26:28;16.70;87.40
16827;DHT22;8530;49.540;8.576;2022-09-01T05:28:58;16.70;87.30
16827;DHT22;8530;49.540;8.576;2022-09-01T05:31:27;16.80;87.20
16827;DHT22;8530;49.540;8.576;2022-09-01T05:34:00;16.90;87.00
16827;DHT22;8530;49.540;8.576;2022-09-01T05:36:27;16.90;86.80
16827;DHT22;8530;49.540;8.576;2022-09-01T05:38:56;17.00;86.70
16827;DHT22;8530;49.540;8.576;2022-09-01T05:41:23;17.10;86.60
16827;DHT22;8530;49.540;8.576;2022-09-01T05:43:50;17.20;86.40
16827;DHT22;8530;49.540;8.576;2022-09-01T05:46:20;17.30;86.30
16827;DHT22;8530;49.540;8.576;2022-09-01T05:48:48;17.40;86.00
16827;DHT22;8530;49.540;8.576;2022-09-01T05:51:19;17.40;85.60
16827;DHT22;8530;49.540;8.576;2022-09-01T05:53:47;17.50;85.40
16827;DHT22;8530;49.540;8.576;2022-09-01T05:56:16;17.60;85.20
16827;DHT22;8530;49.540;8.576;2022-09-01T05:58:44;17.70;85.00
16827;DHT22;8530;49.540;8.576;2022-09-01T06:01:15;17.70;84.60
16827;DHT22;8530;49.540;8.576;2022-09-01T06:03:47;17.90;84.40
16827;DHT22;8530;49.540;8.576;2022-09-01T06:06:16;18.10;84.00
16827;DHT22;8530;49.540;8.576;2022-09-01T06:08:43;18.40;83.60
16827;DHT22;8530;49.540;8.576;2022-09-01T06:11:12;18.60;83.10
16827;DHT22;8530;49.540;8.576;2022-09-01T06:13:42;18.80;82.50
16827;DHT22;8530;49.540;8.576;2022-09-01T06:16:10;19.10;82.40
16827;DHT22;8530;49.540;8.576;2022-09-01T06:18:37;19.60;82.20
16827;DHT22;8530;49.540;8.576;2022-09-01T06:21:05;20.00;80.90
16827;DHT22;8530;49.540;8.576;2022-09-01T06:23:34;20.10;79.20
16827;DHT22;8530;49.540;8.576;2022-09-01T06:26:01;20.20;78.10
16827;DHT22;8530;49.540;8.576;2022-09-01T06:28:28;20.30;77.20
16827;DHT22;8530;49.540;8.576;2022-09-01T06:30:55;20.30;76.30
16827;DHT22;8530;49.540;8.576;2022-09-01T06:33:23;20.30;75.60
16827;DHT22;8530;49.540;8.576;2022-09-01T06:35:50;20.40;75.00
16827;DHT22;8530;49.540;8.576;2022-09-01T06:38:20;20.40;74.30
16827;DHT22;8530;49.540;8.576;2022-09-01T06:40:48;20.50;73.60
16827;DHT22;8530;49.540;8.576;2022-09-01T06:43:14;20.70;72.90
16827;DHT22;8530;49.540;8.576;2022-09-01T06:45:43;21.00;72.50
16827;DHT22;8530;49.540;8.576;2022-09-01T06:48:11;21.20;71.70
16827;DHT22;8530;49.540;8.576;2022-09-01T06:50:41;21.30;70.80
16827;DHT22;8530;49.540;8.576;2022-09-01T06:53:08;21.40;69.90
16827;DHT22;8530;49.540;8.576;2022-09-01T06:55:36;21.50;69.00
16827;DHT22;8530;49.540;8.576;2022-09-01T06:58:06;21.50;68.40
16827;DHT22;8530;49.540;8.576;2022-09-01T07:00:34;21.40;67.50
16827;DHT22;8530;49.540;8.576;2022-09-01T07:03:02;21.40;67.10
16827;DHT22;8530;49.540;8.576;2022-09-01T07:05:32;21.40;66.70
16827;DHT22;8530;49.540;8.576;2022-09-01T07:07:59;21.50;66.50
16827;DHT22;8530;49.540;8.576;2022-09-01T07:10:26;21.50;66.10
16827;DHT22;8530;49.540;8.576;2022-09-01T07:12:55;21.70;65.90
16827;DHT22;8530;49.540;8.576;2022-09-01T07:15:25;21.90;65.40
16827;DHT22;8530;49.540;8.576;2022-09-01T07:17:56;22.10;64.90
16827;DHT22;8530;49.540;8.576;2022-09-01T07:20:25;22.20;64.30
16827;DHT22;8530;49.540;8.576;2022-09-01T07:22:54;22.40;63.70
16827;DHT22;8530;49.540;8.576;2022-09-01T07:25:23;22.60;63.30
16827;DHT22;8530;49.540;8.576;2022-09-01T07:27:50;23.00;63.30
16827;DHT22;8530;49.540;8.576;2022-09-01T07:30:17;23.50;62.50
16827;DHT22;8530;49.540;8.576;2022-09-01T07:32:46;24.00;61.50
16827;DHT22;8530;49.540;8.576;2022-09-01T07:35:16;24.70;60.80
16827;DHT22;8530;49.540;8.576;2022-09-01T07:37:44;25.60;59.80
16827;DHT22;8530;49.540;8.576;2022-09-01T07:40:15;26.40;59.20
16827;DHT22;8530;49.540;8.576;2022-09-01T07:42:44;27.70;57.60
16827;DHT22;8530;49.540;8.576;2022-09-01T07:45:13;29.80;57.30
16827;DHT22;8530;49.540;8.576;2022-09-01T07:47:41;31.50;52.20
16827;DHT22;8530;49.540;8.576;2022-09-01T07:50:12;31.80;48.10
16827;DHT22;8530;49.540;8.576;2022-09-01T07:52:40;31.70;44.70
16827;DHT22;8530;49.540;8.576;2022-09-01T07:55:09;31.70;43.10
16827;DHT22;8530;49.540;8.576;2022-09-01T07:57:37;31.50;41.50
16827;DHT22;8530;49.540;8.576;2022-09-01T08:00:08;31.50;40.50
16827;DHT22;8530;49.540;8.576;2022-09-01T08:02:35;32.20;40.10
16827;DHT22;8530;49.540;8.576;2022-09-01T08:05:04;33.00;39.20
16827;DHT22;8530;49.540;8.576;2022-09-01T08:07:35;33.70;37.90
16827;DHT22;8530;49.540;8.576;2022-09-01T08:10:02;34.00;36.40
16827;DHT22;8530;49.540;8.576;2022-09-01T08:12:29;34.40;35.50
16827;DHT22;8530;49.540;8.576;2022-09-01T08:14:56;35.30;34.60
16827;DHT22;8530;49.540;8.576;2022-09-01T08:17:23;36.10;33.10
16827;DHT22;8530;49.540;8.576;2022-09-01T08:19:49;36.20;31.50
16827;DHT22;8530;49.540;8.576;2022-09-01T08:22:17;35.70;30.10
16827;DHT22;8530;49.540;8.576;2022-09-01T08:24:49;34.90;29.50
16827;DHT22;8530;49.540;8.576;2022-09-01T08:27:15;34.00;29.30
16827;DHT22;8530;49.540;8.576;2022-09-01T08:29:42;33.20;29.20
16827;DHT22;8530;49.540;8.576;2022-09-01T08:32:09;32.40;29.20
16827;DHT22;8530;49.540;8.576;2022-09-01T08:34:36;31.80;29.60
16827;DHT22;8530;49.540;8.576;2022-09-01T08:37:03;31.20;30.00
16827;DHT22;8530;49.540;8.576;2022-09-01T08:39:30;30.80;30.30
16827;DHT22;8530;49.540;8.576;2022-09-01T08:42:05;30.40;30.60
16827;DHT22;8530;49.540;8.576;2022-09-01T08:44:40;30.00;31.00
16827;DHT22;8530;49.540;8.576;2022-09-01T08:47:13;29.50;31.40
16827;DHT22;8530;49.540;8.576;2022-09-01T08:49:41;29.10;31.80
16827;DHT22;8530;49.540;8.576;2022-09-01T08:52:16;28.70;32.40
16827;DHT22;8530;49.540;8.576;2022-09-01T08:54:48;28.30;33.00
16827;DHT22;8530;49.540;8.576;2022-09-01T08:57:19;28.10;33.70
16827;DHT22;8530;49.540;8.576;2022-09-01T08:59:46;27.80;34.10
16827;DHT22;8530;49.540;8.576;2022-09-01T09:02:26;27.60;34.60
16827;DHT22;8530;49.540;8.576;2022-09-01T09:05:03;27.50;35.20
16827;DHT22;8530;49.540;8.576;2022-09-01T09:07:49;27.30;35.60
16827;DHT22;8530;49.540;8.576;2022-09-01T09:10:24;27.40;36.20
16827;DHT22;8530;49.540;8.576;2022-09-01T09:13:02;27.50;36.40
16827;DHT22;8530;49.540;8.576;2022-09-01T09:15:39;27.70;36.70
16827;DHT22;8530;49.540;8.576;2022-09-01T09:18:16;27.90;36.70
16827;DHT22;8530;49.540;8.576;2022-09-01T09:20:46;28.10;36.70
16827;DHT22;8530;49.540;8.576;2022-09-01T09:23:22;28.20;36.70
16827;DHT22;8530;49.540;8.576;2022-09-01T09:25:49;28.20;36.70
16827;DHT22;8530;49.540;8.576;2022-09-01T09:28:17;28.30;36.70
16827;DHT22;8530;49.540;8.576;2022-09-01T09:30:44;28.30;36.60
16827;DHT22;8530;49.540;8.576;2022-09-01T09:33:32;28.50;36.50
16827;DHT22;8530;49.540;8.576;2022-09-01T09:36:15;28.60;36.10
16827;DHT22;8530;49.540;8.576;2022-09-01T09:38:44;28.70;36.20
16827;DHT22;8530;49.540;8.576;2022-09-01T09:41:15;28.70;36.20
16827;DHT22;8530;49.540;8.576;2022-09-01T09:43:46;28.70;35.80
16827;DHT22;8530;49.540;8.576;2022-09-01T09:46:23;28.60;35.70
16827;DHT22;8530;49.540;8.576;2022-09-01T09:49:07;28.20;35.80
16827;DHT22;8530;49.540;8.576;2022-09-01T09:51:34;28.00;36.00
16827;DHT22;8530;49.540;8.576;2022-09-01T09:54:12;27.70;36.80
16827;DHT22;8530;49.540;8.576;2022-09-01T09:56:40;27.70;36.50
16827;DHT22;8530;49.540;8.576;2022-09-01T09:59:20;27.60;36.50
16827;DHT22;8530;49.540;8.576;2022-09-01T10:01:48;27.60;36.50
16827;DHT22;8530;49.540;8.576;2022-09-01T10:04:31;27.60;36.40
16827;DHT22;8530;49.540;8.576;2022-09-01T10:06:58;27.50;36.40
16827;DHT22;8530;49.540;8.576;2022-09-01T10:09:34;27.40;36.40
16827;DHT22;8530;49.540;8.576;2022-09-01T10:12:02;27.20;36.40
16827;DHT22;8530;49.540;8.576;2022-09-01T10:14:37;26.90;36.80
16827;DHT22;8530;49.540;8.576;2022-09-01T10:17:11;26.80;37.10
16827;DHT22;8530;49.540;8.576;2022-09-01T10:19:46;27.00;37.20
16827;DHT22;8530;49.540;8.576;2022-09-01T10:22:14;27.30;37.10
16827;DHT22;8530;49.540;8.576;2022-09-01T10:24:41;27.60;36.80
16827;DHT22;8530;49.540;8.576;2022-09-01T10:27:12;27.60;36.60
16827;DHT22;8530;49.540;8.576;2022-09-01T10:29:45;27.60;36.60
16827;DHT22;8530;49.540;8.576;2022-09-01T10:32:17;27.70;36.60
16827;DHT22;8530;49.540;8.576;2022-09-01T10:34:45;27.60;36.50
16827;DHT22;8530;49.540;8.576;2022-09-01T10:37:13;27.50;36.50
16827;DHT22;8530;49.540;8.576;2022-09-01T10:42:55;27.40;36.70
16827;DHT22;8530;49.540;8.576;2022-09-01T10:45:31;27.50;36.60
16827;DHT22;8530;49.540;8.576;2022-09-01T10:48:30;27.50;36.60
16827;DHT22;8530;49.540;8.576;2022-09-01T10:51:40;27.40;36.80
16827;DHT22;8530;49.540;8.576;2022-09-01T10:54:07;27.60;36.90
16827;DHT22;8530;49.540;8.576;2022-09-01T10:56:39;27.70;36.70
16827;DHT22;8530;49.540;8.576;2022-09-01T10:59:09;27.80;36.50
16827;DHT22;8530;49.540;8.576;2022-09-01T11:02:07;28.00;36.30
16827;DHT22;8530;49.540;8.576;2022-09-01T11:05:10;28.10;35.90
16827;DHT22;8530;49.540;8.576;2022-09-01T11:07:38;28.00;35.60
16827;DHT22;8530;49.540;8.576;2022-09-01T11:10:28;27.80;35.80
16827;DHT22;8530;49.540;8.576;2022-09-01T11:13:19;27.80;35.90
16827;DHT22;8530;49.540;8.576;2022-09-01T11:15:47;27.80;35.80
16827;DHT22;8530;49.540;8.576;2022-09-01T11:18:23;27.80;35.90
16827;DHT22;8530;49.540;8.576;2022-09-01T11:20:51;27.90;35.70
16827;DHT22;8530;49.540;8.576;2022-09-01T11:23:22;28.10;35.60
16827;DHT22;8530;49.540;8.576;2022-09-01T11:25:52;28.40;35.40
16827;DHT22;8530;49.540;8.576;2022-09-01T11:28:35;28.80;34.90
16827;DHT22;8530;49.540;8.576;2022-09-01T11:31:20;29.20;34.30
16827;DHT22;8530;49.540;8.576;2022-09-01T11:34:09;29.50;33.90
16827;DHT22;8530;49.540;8.576;2022-09-01T11:36:44;29.40;33.40
16827;DHT22;8530;49.540;8.576;2022-09-01T11:39:35;29.20;33.40
16827;DHT22;8530;49.540;8.576;2022-09-01T11:42:08;28.90;33.30
16827;DHT22;8530;49.540;8.576;2022-09-01T11:44:41;28.80;33.50
16827;DHT22;8530;49.540;8.576;2022-09-01T11:47:14;28.90;33.40
16827;DHT22;8530;49.540;8.576;2022-09-01T11:49:50;29.20;33.30
16827;DHT22;8530;49.540;8.576;2022-09-01T11:52:22;29.50;32.90
16827;DHT22;8530;49.540;8.576;2022-09-01T11:54:50;29.60;32.60
16827;DHT22;8530;49.540;8.576;2022-09-01T11:57:26;29.60;32.40
16827;DHT22;8530;49.540;8.576;2022-09-01T11:59:54;29.30;32.20
16827;DHT22;8530;49.540;8.576;2022-09-01T12:02:23;29.10;32.40
16827;DHT22;8530;49.540;8.576;2022-09-01T12:04:52;29.00;32.50
16827;DHT22;8530;49.540;8.576;2022-09-01T12:07:37;28.80;32.60
16827;DHT22;8530;49.540;8.576;2022-09-01T12:10:14;28.70;32.70
16827;DHT22;8530;49.540;8.576;2022-09-01T12:12:42;28.70;32.70
16827;DHT22;8530;49.540;8.576;2022-09-01T12:15:17;28.90;32.70
16827;DHT22;8530;49.540;8.576;2022-09-01T12:17:44;29.00;32.20
16827;DHT22;8530;49.540;8.576;2022-09-01T12:20:26;28.90;31.90
16827;DHT22;8530;49.540;8.576;2022-09-01T12:22:55;29.00;31.70
16827;DHT22;8530;49.540;8.576;2022-09-01T12:25:24;28.90;31.60
16827;DHT22;8530;49.540;8.576;2022-09-01T12:27:52;28.60;31.60
16827;DHT22;8530;49.540;8.576;2022-09-01T12:30:20;28.40;31.90
16827;DHT22;8530;49.540;8.576;2022-09-01T12:32:47;28.40;32.10
16827;DHT22;8530;49.540;8.576;2022-09-01T12:35:19;28.40;32.10
16827;DHT22;8530;49.540;8.576;2022-09-01T12:37:48;28.80;32.20
16827;DHT22;8530;49.540;8.576;2022-09-01T12:40:22;29.20;32.00
16827;DHT22;8530;49.540;8.576;2022-09-01T12:42:51;29.20;31.60
16827;DHT22;8530;49.540;8.576;2022-09-01T12:45:40;29.10;31.50
16827;DHT22;8530;49.540;8.576;2022-09-01T12:48:22;28.90;31.60
16827;DHT22;8530;49.540;8.576;2022-09-01T12:50:50;28.70;31.90
16827;DHT22;8530;49.540;8.576;2022-09-01T12:53:25;28.50;32.00
16827;DHT22;8530;49.540;8.576;2022-09-01T12:56:05;28.30;32.10
16827;DHT22;8530;49.540;8.576;2022-09-01T12:58:32;28.10;32.20
16827;DHT22;8530;49.540;8.576;2022-09-01T13:01:02;27.90;32.50
16827;DHT22;8530;49.540;8.576;2022-09-01T13:03:30;27.80;32.70
16827;DHT22;8530;49.540;8.576;2022-09-01T13:05:58;27.70;32.90
16827;DHT22;8530;49.540;8.576;2022-09-01T13:08:28;27.70;33.10
16827;DHT22;8530;49.540;8.576;2022-09-01T13:11:00;27.60;33.20
16827;DHT22;8530;49.540;8.576;2022-09-01T13:13:28;27.70;33.40
16827;DHT22;8530;49.540;8.576;2022-09-01T13:15:57;27.90;33.40
16827;DHT22;8530;49.540;8.576;2022-09-01T13:18:25;28.00;33.20
16827;DHT22;8530;49.540;8.576;2022-09-01T13:20:53;28.00;33.10
16827;DHT22;8530;49.540;8.576;2022-09-01T13:23:21;28.00;33.00
16827;DHT22;8530;49.540;8.576;2022-09-01T13:25:49;28.00;33.10
16827;DHT22;8530;49.540;8.576;2022-09-01T13:28:16;28.00;33.10
16827;DHT22;8530;49.540;8.576;2022-09-01T13:30:48;27.90;33.10
16827;DHT22;8530;49.540;8.576;2022-09-01T13:33:17;27.90;33.10
16827;DHT22;8530;49.540;8.576;2022-09-01T13:35:44;27.80;33.10
16827;DHT22;8530;49.540;8.576;2022-09-01T13:38:10;27.70;33.20
16827;DHT22;8530;49.540;8.576;2022-09-01T13:40:40;27.70;33.40
16827;DHT22;8530;49.540;8.576;2022-09-01T13:43:08;27.60;33.50
16827;DHT22;8530;49.540;8.576;2022-09-01T13:45:36;27.70;33.70
16827;DHT22;8530;49.540;8.576;2022-09-01T13:48:05;27.70;33.70
16827;DHT22;8530;49.540;8.576;2022-09-01T13:50:32;27.70;33.80
16827;DHT22;8530;49.540;8.576;2022-09-01T13:52:59;27.60;33.80
16827;DHT22;8530;49.540;8.576;2022-09-01T13:55:27;27.50;33.60
16827;DHT22;8530;49.540;8.576;2022-09-01T13:57:54;27.40;33.60
16827;DHT22;8530;49.540;8.576;2022-09-01T14:00:26;27.30;33.70
16827;DHT22;8530;49.540;8.576;2022-09-01T14:02:55;27.30;33.90
16827;DHT22;8530;49.540;8.576;2022-09-01T14:05:24;27.40;33.80
16827;DHT22;8530;49.540;8.576;2022-09-01T14:07:51;27.50;33.70
16827;DHT22;8530;49.540;8.576;2022-09-01T14:10:20;27.60;33.60
16827;DHT22;8530;49.540;8.576;2022-09-01T14:12:50;27.60;33.50
16827;DHT22;8530;49.540;8.576;2022-09-01T14:15:18;27.60;33.40
16827;DHT22;8530;49.540;8.576;2022-09-01T14:17:49;27.70;33.40
16827;DHT22;8530;49.540;8.576;2022-09-01T14:20:19;27.80;33.20
16827;DHT22;8530;49.540;8.576;2022-09-01T14:22:48;27.80;33.10
16827;DHT22;8530;49.540;8.576;2022-09-01T14:25:16;28.00;33.00
16827;DHT22;8530;49.540;8.576;2022-09-01T14:27:44;28.30;32.80
16827;DHT22;8530;49.540;8.576;2022-09-01T14:30:13;28.40;32.60
16827;DHT22;8530;49.540;8.576;2022-09-01T14:32:40;28.70;33.00
16827;DHT22;8530;49.540;8.576;2022-09-01T14:35:09;28.90;31.90
16827;DHT22;8530;49.540;8.576;2022-09-01T14:37:36;29.10;31.70
16827;DHT22;8530;49.540;8.576;2022-09-01T14:40:05;29.20;31.30
16827;DHT22;8530;49.540;8.576;2022-09-01T14:42:33;29.20;31.00
16827;DHT22;8530;49.540;8.576;2022-09-01T14:45:01;29.00;30.70
16827;DHT22;8530;49.540;8.576;2022-09-01T14:47:29;28.70;30.70
16827;DHT22;8530;49.540;8.576;2022-09-01T14:49:56;28.50;30.90
16827;DHT22;8530;49.540;8.576;2022-09-01T14:52:24;28.50;31.00
16827;DHT22;8530;49.540;8.576;2022-09-01T14:54:51;28.50;30.90
16827;DHT22;8530;49.540;8.576;2022-09-01T14:57:18;28.50;30.70
16827;DHT22;8530;49.540;8.576;2022-09-01T14:59:45;28.40;30.50
16827;DHT22;8530;49.540;8.576;2022-09-01T15:02:12;28.20;30.60
16827;DHT22;8530;49.540;8.576;2022-09-01T15:04:38;28.10;30.70
16827;DHT22;8530;49.540;8.576;2022-09-01T15:07:06;28.10;30.80
16827;DHT22;8530;49.540;8.576;2022-09-01T15:09:34;28.10;31.40
16827;DHT22;8530;49.540;8.576;2022-09-01T15:12:02;28.10;30.90
16827;DHT22;8530;49.540;8.576;2022-09-01T15:14:30;28.00;30.90
16827;DHT22;8530;49.540;8.576;2022-09-01T15:16:57;27.90;31.00
16827;DHT22;8530;49.540;8.576;2022-09-01T15:19:23;27.70;31.10
16827;DHT22;8530;49.540;8.576;2022-09-01T15:21:50;27.60;31.30
16827;DHT22;8530;49.540;8.576;2022-09-01T15:24:17;27.40;31.30
16827;DHT22;8530;49.540;8.576;2022-09-01T15:26:45;27.30;31.60
16827;DHT22;8530;49.540;8.576;2022-09-01T15:29:12;27.20;31.80
16827;DHT22;8530;49.540;8.576;2022-09-01T15:31:40;27.20;31.90
16827;DHT22;8530;49.540;8.576;2022-09-01T15:34:07;27.10;32.10
16827;DHT22;8530;49.540;8.576;2022-09-01T15:36:35;27.10;32.20
16827;DHT22;8530;49.540;8.576;2022-09-01T15:39:05;27.00;32.30
16827;DHT22;8530;49.540;8.576;2022-09-01T15:41:33;26.80;32.30
16827;DHT22;8530;49.540;8.576;2022-09-01T15:44:03;26.70;32.50
16827;DHT22;8530;49.540;8.576;2022-09-01T15:46:31;26.60;32.70
16827;DHT22;8530;49.540;8.576;2022-09-01T15:48:59;26.40;32.90
16827;DHT22;8530;49.540;8.576;2022-09-01T15:51:30;26.30;33.10
16827;DHT22;8530;49.540;8.576;2022-09-01T15:53:59;26.20;33.40
16827;DHT22;8530;49.540;8.576;2022-09-01T15:56:26;26.10;33.70
16827;DHT22;8530;49.540;8.576;2022-09-01T15:58:53;26.00;33.90
16827;DHT22;8530;49.540;8.576;2022-09-01T16:01:22;25.90;34.10
16827;DHT22;8530;49.540;8.576;2022-09-01T16:03:49;25.80;34.30
16827;DHT22;8530;49.540;8.576;2022-09-01T16:06:16;25.80;34.50